createdAt,value
2023-07-15T00:00:15.115Z,64.34
2023-07-15T00:02:43.732Z,63.49
2023-07-15T00:05:29.901Z,65.78
2023-07-15T00:07:56.792Z,64.30
2023-07-15T00:10:23.440Z,64.03
2023-07-15T00:12:49.978Z,64.39
2023-07-15T00:15:16.478Z,64.28
2023-07-15T00:17:44.118Z,64.02
2023-07-15T00:20:15.967Z,64.16
2023-07-15T00:22:44.309Z,64.66
2023-07-15T00:25:16.582Z,64.05
2023-07-15T00:27:44.056Z,64.79
2023-07-15T00:30:16.354Z,66.00
2023-07-15T00:32:46.727Z,65.75
2023-07-15T00:35:22.777Z,65.51
2023-07-15T00:37:49.389Z,65.44
2023-07-15T00:40:16.909Z,65.66
2023-07-15T00:42:49.603Z,64.93
2023-07-15T00:45:16.621Z,64.87
2023-07-15T00:48:04.173Z,65.26
2023-07-15T00:50:31.364Z,67.06
2023-07-15T00:52:57.859Z,66.19
2023-07-15T00:55:24.406Z,65.99
2023-07-15T00:57:50.984Z,65.99
2023-07-15T01:00:19.233Z,65.85
2023-07-15T01:02:45.787Z,65.77
2023-07-15T01:05:12.439Z,66.34
2023-07-15T01:07:38.882Z,65.92
2023-07-15T01:10:05.640Z,66.55
2023-07-15T01:12:32.109Z,67.28
2023-07-15T01:14:58.534Z,67.46
2023-07-15T01:17:26.048Z,66.43
2023-07-15T01:19:54.260Z,66.85
2023-07-15T01:22:21.566Z,66.97
2023-07-15T01:24:48.106Z,67.18
2023-07-15T01:27:15.749Z,67.91
2023-07-15T01:29:42.256Z,66.39
2023-07-15T01:32:08.938Z,66.43
2023-07-15T01:34:35.395Z,66.16
2023-07-15T01:37:01.880Z,67.93
2023-07-15T01:39:28.338Z,67.68
2023-07-15T01:41:56.615Z,68.89
2023-07-15T01:44:25.840Z,69.17
2023-07-15T01:46:52.547Z,69.15
2023-07-15T01:49:19.099Z,68.17
2023-07-15T01:51:45.571Z,68.67
2023-07-15T01:54:12.107Z,68.86
2023-07-15T01:56:40.794Z,67.69
2023-07-15T01:59:07.247Z,67.83
2023-07-15T02:01:33.808Z,67.47
2023-07-15T02:04:00.826Z,67.34
2023-07-15T02:06:27.387Z,68.07
2023-07-15T02:08:53.868Z,67.56
2023-07-15T02:11:20.337Z,68.07
2023-07-15T02:13:46.832Z,68.27
2023-07-15T02:16:13.643Z,69.77
2023-07-15T02:18:40.489Z,69.50
2023-07-15T02:21:06.985Z,69.06
2023-07-15T02:23:34.682Z,69.12
2023-07-15T02:26:02.113Z,70.23
2023-07-15T02:28:28.988Z,70.64
2023-07-15T02:30:56.535Z,70.52
2023-07-15T02:33:24.524Z,71.14
2023-07-15T02:35:51.375Z,71.62
2023-07-15T02:38:17.831Z,71.26
2023-07-15T02:40:44.385Z,71.37
2023-07-15T02:43:12.774Z,72.74
2023-07-15T02:45:39.334Z,72.21
2023-07-15T02:48:05.855Z,73.24
2023-07-15T02:50:32.329Z,71.39
2023-07-15T02:52:59.164Z,72.35
2023-07-15T02:55:28.918Z,72.89
2023-07-15T02:57:55.442Z,72.46
2023-07-15T03:00:23.517Z,74.09
2023-07-15T03:02:50.021Z,72.62
2023-07-15T03:05:17.581Z,73.41
2023-07-15T03:07:46.219Z,73.67
2023-07-15T03:10:13.550Z,72.67
2023-07-15T03:12:40.281Z,73.24
2023-07-15T03:15:07.262Z,73.32
2023-07-15T03:17:36.957Z,73.94
2023-07-15T03:20:23.383Z,74.34
2023-07-15T03:22:51.295Z,73.98
2023-07-15T03:25:20.548Z,74.46
2023-07-15T03:27:47.631Z,73.84
2023-07-15T03:30:14.317Z,73.80
2023-07-15T03:32:41.990Z,73.41
2023-07-15T03:35:13.163Z,74.08
2023-07-15T03:37:42.761Z,74.35
2023-07-15T03:40:11.300Z,73.67
2023-07-15T03:42:41.324Z,73.53
2023-07-15T03:45:08.586Z,73.08
2023-07-15T03:47:35.610Z,73.46
2023-07-15T03:50:06.232Z,74.68
2023-07-15T03:52:33.095Z,73.89
2023-07-15T03:55:00.082Z,73.35
2023-07-15T03:57:26.978Z,73.80
2023-07-15T03:59:53.448Z,73.86
2023-07-15T04:02:19.983Z,72.39
2023-07-15T04:04:47.658Z,72.47
2023-07-15T04:07:14.184Z,72.46
2023-07-15T04:09:41.669Z,72.89
2023-07-15T04:12:09.451Z,72.42
2023-07-15T04:14:35.946Z,72.12
2023-07-15T04:17:02.377Z,72.61
2023-07-15T04:19:28.854Z,72.47
2023-07-15T04:21:55.294Z,72.24
2023-07-15T04:24:21.746Z,73.42
2023-07-15T04:26:48.235Z,73.20
2023-07-15T04:29:15.159Z,72.41
2023-07-15T04:31:43.666Z,72.48
2023-07-15T04:34:10.268Z,69.76
2023-07-15T04:36:36.797Z,67.84
2023-07-15T04:39:03.341Z,68.92
2023-07-15T04:41:29.796Z,70.30
2023-07-15T04:43:56.217Z,70.89
2023-07-15T04:46:22.707Z,71.29
2023-07-15T04:48:49.224Z,71.14
2023-07-15T04:51:16.729Z,70.38
2023-07-15T04:53:44.796Z,71.18
2023-07-15T04:56:12.150Z,70.99
2023-07-15T04:58:39.810Z,71.24
2023-07-15T05:01:06.321Z,70.21
2023-07-15T05:03:34.467Z,71.00
2023-07-15T05:06:01.881Z,69.76
2023-07-15T05:08:29.058Z,69.80
2023-07-15T05:10:56.228Z,70.51
2023-07-15T05:13:22.784Z,70.35
2023-07-15T05:15:49.245Z,69.71
2023-07-15T05:18:17.139Z,70.99
2023-07-15T05:20:43.768Z,70.16
2023-07-15T05:23:10.306Z,69.76
2023-07-15T05:25:36.821Z,69.80
2023-07-15T05:28:03.324Z,69.49
2023-07-15T05:30:29.798Z,70.09
2023-07-15T05:32:56.585Z,70.96
2023-07-15T05:35:23.109Z,71.23
2023-07-15T05:37:49.682Z,71.46
2023-07-15T05:40:16.265Z,70.73
2023-07-15T05:42:43.755Z,71.75
2023-07-15T05:45:11.665Z,71.44
2023-07-15T05:47:41.418Z,70.10
2023-07-15T05:50:09.463Z,69.90
2023-07-15T05:52:36.276Z,71.33
2023-07-15T05:55:03.447Z,70.43
2023-07-15T05:57:30.342Z,69.17
2023-07-15T05:59:59.769Z,68.27
2023-07-15T06:02:26.913Z,68.43
2023-07-15T06:04:53.455Z,67.59
2023-07-15T06:07:19.913Z,67.17
2023-07-15T06:09:46.372Z,67.37
2023-07-15T06:12:12.795Z,67.36
2023-07-15T06:14:39.262Z,67.38
2023-07-15T06:17:05.986Z,67.83
2023-07-15T06:19:32.453Z,67.38
2023-07-15T06:21:58.876Z,67.11
2023-07-15T06:24:25.559Z,68.62
2023-07-15T06:26:52.015Z,68.05
2023-07-15T06:29:18.529Z,68.78
2023-07-15T06:31:45.945Z,67.95
2023-07-15T06:34:12.564Z,67.25
2023-07-15T06:36:39.081Z,66.96
2023-07-15T06:39:05.678Z,64.93
2023-07-15T06:41:32.190Z,62.63
2023-07-15T06:43:58.690Z,60.32
2023-07-15T06:46:28.129Z,60.29
2023-07-15T06:48:56.567Z,60.88
2023-07-15T06:51:26.148Z,61.19
2023-07-15T06:53:52.703Z,60.40
2023-07-15T06:56:21.041Z,61.48
2023-07-15T06:58:48.141Z,63.81
2023-07-15T07:01:15.299Z,61.70
2023-07-15T07:03:42.190Z,61.06
2023-07-15T07:06:08.853Z,61.89
2023-07-15T07:08:35.367Z,61.44
2023-07-15T07:11:01.795Z,62.17
2023-07-15T07:13:28.302Z,63.85
2023-07-15T07:15:58.769Z,61.61
2023-07-15T07:18:26.156Z,60.15
2023-07-15T07:20:59.960Z,58.13
2023-07-15T07:23:26.928Z,58.40
2023-07-15T07:25:54.090Z,57.38
2023-07-15T07:28:24.414Z,59.21
2023-07-15T07:30:51.537Z,55.92
2023-07-15T07:33:19.817Z,54.70
2023-07-15T07:35:47.957Z,55.37
2023-07-15T07:38:14.820Z,55.08
2023-07-15T07:40:41.296Z,54.50
2023-07-15T07:43:10.245Z,55.05
2023-07-15T07:45:38.352Z,55.63
2023-07-15T07:48:05.286Z,55.57
2023-07-15T07:50:32.373Z,56.17
2023-07-15T07:52:58.832Z,55.69
2023-07-15T07:55:25.351Z,56.38
2023-07-15T07:57:51.834Z,56.56
2023-07-15T08:00:18.354Z,56.16
2023-07-15T08:02:44.851Z,56.26
2023-07-15T08:05:11.356Z,55.56
2023-07-15T08:07:38.072Z,55.32
2023-07-15T08:10:04.946Z,55.43
2023-07-15T08:12:31.460Z,54.80
2023-07-15T08:14:57.878Z,55.31
2023-07-15T08:17:24.332Z,55.46
2023-07-15T08:19:50.843Z,56.16
2023-07-15T08:22:17.275Z,56.67
2023-07-15T08:24:44.817Z,56.75
2023-07-15T08:27:11.288Z,55.53
2023-07-15T08:29:37.753Z,55.93
2023-07-15T08:32:04.485Z,56.57
2023-07-15T08:34:33.591Z,56.49
2023-07-15T08:37:00.366Z,55.76
2023-07-15T08:39:26.787Z,55.99
2023-07-15T08:41:54.342Z,55.42
2023-07-15T08:44:21.005Z,55.64
2023-07-15T08:46:48.574Z,55.43
2023-07-15T08:49:19.700Z,55.42
2023-07-15T08:51:46.588Z,55.89
2023-07-15T08:54:13.431Z,57.11
2023-07-15T08:56:40.053Z,58.20
2023-07-15T08:59:07.447Z,61.41
2023-07-15T09:01:38.087Z,63.87
2023-07-15T09:04:05.303Z,63.84
2023-07-15T09:06:32.005Z,63.57
2023-07-15T09:08:58.488Z,65.11
2023-07-15T09:11:25.007Z,64.09
2023-07-15T09:13:51.523Z,64.99
2023-07-15T09:16:18.044Z,65.25
2023-07-15T09:18:44.580Z,67.74
2023-07-15T09:21:14.230Z,68.01
2023-07-15T09:23:43.174Z,68.16
2023-07-15T09:26:10.593Z,70.13
2023-07-15T09:28:38.068Z,70.69
2023-07-15T09:31:05.206Z,70.73
2023-07-15T09:33:36.389Z,69.63
2023-07-15T09:36:03.226Z,70.65
2023-07-15T09:38:35.234Z,72.53
2023-07-15T09:41:02.106Z,73.70
2023-07-15T09:43:50.930Z,76.48
2023-07-15T09:46:20.634Z,77.86
2023-07-15T09:48:48.374Z,78.74
2023-07-15T09:51:17.192Z,79.47
2023-07-15T09:53:49.319Z,77.44
2023-07-15T09:56:18.408Z,80.61
2023-07-15T09:58:48.126Z,76.55
2023-07-15T10:01:27.263Z,75.00
2023-07-15T10:03:58.354Z,76.15
2023-07-15T10:06:24.975Z,74.88
2023-07-15T10:08:51.706Z,72.63
2023-07-15T10:11:18.421Z,70.63
2023-07-15T10:13:44.967Z,67.05
2023-07-15T10:16:11.945Z,68.85
2023-07-15T10:18:38.520Z,71.29
2023-07-15T10:21:06.263Z,68.50
2023-07-15T10:23:34.031Z,66.30
2023-07-15T10:26:05.736Z,62.34
2023-07-15T10:28:42.928Z,61.15
2023-07-15T10:31:16.943Z,60.28
2023-07-15T10:33:56.700Z,62.51
2023-07-15T10:36:45.982Z,62.43
2023-07-15T10:39:17.726Z,62.79
2023-07-15T10:41:49.679Z,61.58
2023-07-15T10:44:20.347Z,63.23
2023-07-15T10:47:05.303Z,63.04
2023-07-15T10:49:32.346Z,60.60
2023-07-15T10:51:59.243Z,62.82
2023-07-15T10:54:30.709Z,61.25
2023-07-15T10:56:57.814Z,61.49
2023-07-15T10:59:26.039Z,62.28
2023-07-15T11:01:52.558Z,62.86
2023-07-15T11:04:20.055Z,63.04
2023-07-15T11:06:46.845Z,63.74
2023-07-15T11:09:17.927Z,64.13
2023-07-15T11:11:44.813Z,64.59
2023-07-15T11:14:30.302Z,65.05
2023-07-15T11:17:01.531Z,65.40
2023-07-15T11:19:29.761Z,64.18
2023-07-15T11:21:57.805Z,63.95
2023-07-15T11:24:26.711Z,64.30
2023-07-15T11:26:53.490Z,63.32
2023-07-15T11:29:21.937Z,62.47
2023-07-15T11:31:52.555Z,62.74
2023-07-15T11:34:20.689Z,63.18
2023-07-15T11:36:47.489Z,63.98
2023-07-15T11:39:15.045Z,64.25
2023-07-15T11:41:41.801Z,63.77
2023-07-15T11:44:12.402Z,63.09
2023-07-15T11:46:40.082Z,63.63
2023-07-15T11:49:07.140Z,63.71
2023-07-15T11:51:35.828Z,63.90
2023-07-15T11:54:02.397Z,64.14
2023-07-15T11:56:33.820Z,64.43
2023-07-15T11:59:00.259Z,63.51
2023-07-15T12:01:27.420Z,62.62
2023-07-15T12:03:54.614Z,62.32
2023-07-15T12:06:23.404Z,61.70
2023-07-15T12:09:04.168Z,62.60
2023-07-15T12:11:31.671Z,61.85
2023-07-15T12:13:58.828Z,61.69
2023-07-15T12:16:25.766Z,62.35
2023-07-15T12:18:53.977Z,62.17
2023-07-15T12:21:21.001Z,63.44
2023-07-15T12:23:47.498Z,65.92
2023-07-15T12:26:14.493Z,68.07
2023-07-15T12:28:41.207Z,68.76
2023-07-15T12:31:07.731Z,68.85
2023-07-15T12:33:34.195Z,67.96
2023-07-15T12:36:00.716Z,70.04
2023-07-15T12:38:27.200Z,70.46
2023-07-15T12:40:54.100Z,70.60
2023-07-15T12:43:21.661Z,71.14
2023-07-15T12:45:48.617Z,72.98
2023-07-15T12:48:15.100Z,73.64
2023-07-15T12:50:41.563Z,72.99
2023-07-15T12:53:08.443Z,72.37
2023-07-15T12:55:35.245Z,71.92
2023-07-15T12:58:01.752Z,69.47
2023-07-15T13:00:28.294Z,68.65
2023-07-15T13:02:54.972Z,67.64
2023-07-15T13:05:21.532Z,67.69
2023-07-15T13:07:48.046Z,66.70
2023-07-15T13:10:15.053Z,66.67
2023-07-15T13:12:41.592Z,67.39
2023-07-15T13:15:08.815Z,66.55
2023-07-15T13:17:35.375Z,67.14
2023-07-15T13:20:02.128Z,67.41
2023-07-15T13:22:28.623Z,67.53
2023-07-15T13:24:55.106Z,68.31
2023-07-15T13:27:21.567Z,68.27
2023-07-15T13:29:50.839Z,68.97
2023-07-15T13:32:17.300Z,69.12
2023-07-15T13:34:43.781Z,72.86
2023-07-15T13:37:10.247Z,78.69
2023-07-15T13:39:37.518Z,84.92
2023-07-15T13:42:08.189Z,84.56
2023-07-15T13:44:35.604Z,85.90
2023-07-15T13:47:02.829Z,87.73
2023-07-15T13:49:29.457Z,88.64
2023-07-15T13:51:56.343Z,91.11
2023-07-15T13:54:23.281Z,90.76
2023-07-15T13:56:50.411Z,89.52
2023-07-15T13:59:17.945Z,91.53
2023-07-15T14:01:45.162Z,93.90
2023-07-15T14:04:11.797Z,94.93
2023-07-15T14:06:41.153Z,95.90
2023-07-15T14:09:11.089Z,94.84
2023-07-15T14:11:39.355Z,95.80
2023-07-15T14:14:06.145Z,95.45
2023-07-15T14:16:32.715Z,97.01
2023-07-15T14:18:59.821Z,98.55
2023-07-15T14:21:26.331Z,97.59
2023-07-15T14:23:52.903Z,97.97
2023-07-15T14:26:22.187Z,99.08
2023-07-15T14:28:48.683Z,100.00
2023-07-15T14:31:15.637Z,98.86
2023-07-15T14:33:42.354Z,96.30
2023-07-15T14:36:09.140Z,96.20
2023-07-15T14:38:35.601Z,95.15
2023-07-15T14:41:02.099Z,96.30
2023-07-15T14:43:28.745Z,95.22
2023-07-15T14:45:55.208Z,96.85
2023-07-15T14:48:21.673Z,97.19
2023-07-15T14:50:48.228Z,100.00
2023-07-15T14:53:14.701Z,97.95
2023-07-15T14:55:41.158Z,96.98
2023-07-15T14:58:07.701Z,97.46
2023-07-15T15:00:34.376Z,95.99
2023-07-15T15:03:01.123Z,97.93
2023-07-15T15:05:27.976Z,97.25
2023-07-15T15:07:54.711Z,95.81
2023-07-15T15:10:21.228Z,97.99
2023-07-15T15:12:47.721Z,96.15
2023-07-15T15:15:14.147Z,97.55
2023-07-15T15:17:40.794Z,95.80
2023-07-15T15:20:07.849Z,95.14
2023-07-15T15:22:34.371Z,93.87
2023-07-15T15:25:04.194Z,94.61
2023-07-15T15:27:30.979Z,99.51
2023-07-15T15:29:57.449Z,96.45
2023-07-15T15:32:23.993Z,96.97
2023-07-15T15:34:50.609Z,98.77
2023-07-15T15:37:17.083Z,96.70
2023-07-15T15:39:43.596Z,93.67
2023-07-15T15:42:10.270Z,92.64
2023-07-15T15:44:36.783Z,94.55
2023-07-15T15:47:03.393Z,92.91
2023-07-15T15:49:29.986Z,92.17
2023-07-15T15:51:56.481Z,93.42
2023-07-15T15:54:22.940Z,95.61
2023-07-15T15:56:49.599Z,96.08
2023-07-15T15:59:16.064Z,94.97
2023-07-15T16:01:42.553Z,93.01
2023-07-15T16:04:09.239Z,92.50
2023-07-15T16:06:35.833Z,94.31
2023-07-15T16:09:02.296Z,93.86
2023-07-15T16:11:28.797Z,95.04
2023-07-15T16:13:55.271Z,95.30
2023-07-15T16:16:21.749Z,94.43
2023-07-15T16:18:48.283Z,96.24
2023-07-15T16:21:15.028Z,97.48
2023-07-15T16:23:41.777Z,97.22
2023-07-15T16:26:08.325Z,98.65
2023-07-15T16:28:37.112Z,95.33
2023-07-15T16:31:03.648Z,96.61
2023-07-15T16:33:30.163Z,94.85
2023-07-15T16:35:57.432Z,94.43
2023-07-15T16:38:23.861Z,93.09
2023-07-15T16:40:50.446Z,91.84
2023-07-15T16:43:16.927Z,98.68
2023-07-15T16:45:43.389Z,91.24
2023-07-15T16:48:09.892Z,86.91
2023-07-15T16:50:36.365Z,87.16
2023-07-15T16:53:02.834Z,84.29
2023-07-15T16:55:29.339Z,83.12
2023-07-15T16:57:55.760Z,82.89
2023-07-15T17:00:22.216Z,84.88
2023-07-15T17:02:48.757Z,83.58
2023-07-15T17:05:15.300Z,84.41
2023-07-15T17:07:41.745Z,85.25
2023-07-15T17:10:08.586Z,82.39
2023-07-15T17:12:35.128Z,81.12
2023-07-15T17:15:01.966Z,81.45
2023-07-15T17:17:28.486Z,78.77
2023-07-15T17:19:54.987Z,79.89
2023-07-15T17:22:21.505Z,81.52
2023-07-15T17:24:54.130Z,78.41
2023-07-15T17:27:20.689Z,85.58
2023-07-15T17:29:47.146Z,81.22
2023-07-15T17:32:13.603Z,81.21
2023-07-15T17:34:40.058Z,81.42
2023-07-15T17:37:06.929Z,81.88
2023-07-15T17:39:33.415Z,81.40
2023-07-15T17:42:02.671Z,82.10
2023-07-15T17:44:29.782Z,81.96
2023-07-15T17:46:56.387Z,82.89
2023-07-15T17:49:22.887Z,81.39
2023-07-15T17:51:49.367Z,81.51
2023-07-15T17:54:15.828Z,81.01
2023-07-15T17:56:42.301Z,82.61
2023-07-15T17:59:08.760Z,82.34
2023-07-15T18:01:35.289Z,81.04
2023-07-15T18:04:01.851Z,80.21
2023-07-15T18:06:28.367Z,80.49
2023-07-15T18:08:55.991Z,80.19
2023-07-15T18:11:22.423Z,78.39
2023-07-15T18:13:48.850Z,77.85
2023-07-15T18:16:15.374Z,78.52
2023-07-15T18:18:41.838Z,78.22
2023-07-15T18:21:08.344Z,77.38
2023-07-15T18:23:39.520Z,77.83
2023-07-15T18:26:06.344Z,77.27
2023-07-15T18:28:32.830Z,78.49
2023-07-15T18:30:59.354Z,78.48
2023-07-15T18:33:25.797Z,78.26
2023-07-15T18:35:52.262Z,79.57
2023-07-15T18:38:18.770Z,79.80
2023-07-15T18:40:45.293Z,79.31
2023-07-15T18:43:11.799Z,79.20
2023-07-15T18:45:38.294Z,80.06
2023-07-15T18:48:05.420Z,80.72
2023-07-15T18:50:31.869Z,81.39
2023-07-15T18:52:58.381Z,81.11
2023-07-15T18:55:24.860Z,81.12
2023-07-15T18:57:51.377Z,80.87
2023-07-15T19:00:17.914Z,81.50
2023-07-15T19:02:44.463Z,81.78
2023-07-15T19:05:11.089Z,81.54
2023-07-15T19:07:37.598Z,81.79
2023-07-15T19:10:04.325Z,81.50
2023-07-15T19:12:30.820Z,81.03
2023-07-15T19:14:57.562Z,81.45
2023-07-15T19:17:24.039Z,80.25
2023-07-15T19:19:50.560Z,79.79
2023-07-15T19:22:17.039Z,79.37
2023-07-15T19:24:43.554Z,78.78
2023-07-15T19:27:10.175Z,78.35
2023-07-15T19:29:37.275Z,78.36
2023-07-15T19:32:04.372Z,78.96
2023-07-15T19:34:32.429Z,84.38
2023-07-15T19:36:58.965Z,84.20
2023-07-15T19:39:25.621Z,86.04
2023-07-15T19:41:52.123Z,86.09
2023-07-15T19:44:20.473Z,87.51
2023-07-15T19:46:46.927Z,87.25
2023-07-15T19:49:14.261Z,90.73
2023-07-15T19:51:45.946Z,89.40
2023-07-15T19:54:13.067Z,90.00
2023-07-15T19:56:39.618Z,89.77
2023-07-15T19:59:07.241Z,89.91
2023-07-15T20:01:34.419Z,90.28
2023-07-15T20:04:01.175Z,92.65
2023-07-15T20:06:27.818Z,92.43
2023-07-15T20:08:54.274Z,93.25
2023-07-15T20:11:20.699Z,93.95
2023-07-15T20:13:48.296Z,94.53
2023-07-15T20:16:15.014Z,95.87
2023-07-15T20:18:41.728Z,96.44
2023-07-15T20:21:08.222Z,96.33
2023-07-15T20:23:34.758Z,97.40
2023-07-15T20:26:03.137Z,95.94
2023-07-15T20:28:29.587Z,96.82
2023-07-15T20:31:02.810Z,96.45
2023-07-15T20:33:29.920Z,96.35
2023-07-15T20:35:56.400Z,95.69
2023-07-15T20:38:22.923Z,95.66
2023-07-15T20:40:57.112Z,96.28
2023-07-15T20:43:25.033Z,95.58
2023-07-15T20:45:51.708Z,94.47
2023-07-15T20:48:18.363Z,96.20
2023-07-15T20:50:44.845Z,94.73
2023-07-15T20:53:11.659Z,94.75
2023-07-15T20:55:42.018Z,96.11
2023-07-15T20:58:08.584Z,96.44
2023-07-15T21:00:35.138Z,96.56
2023-07-15T21:03:01.736Z,96.43
2023-07-15T21:05:28.367Z,97.26
2023-07-15T21:07:54.824Z,98.01
2023-07-15T21:10:21.413Z,98.09
2023-07-15T21:12:47.899Z,98.14
2023-07-15T21:15:14.393Z,98.71
2023-07-15T21:17:40.869Z,98.55
2023-07-15T21:20:08.051Z,99.84
2023-07-15T21:22:35.055Z,99.40
2023-07-15T21:25:01.530Z,99.25
2023-07-15T21:27:27.971Z,97.74
2023-07-15T21:29:54.529Z,98.51
2023-07-15T21:32:21.035Z,98.92
2023-07-15T21:34:50.760Z,98.38
2023-07-15T21:37:17.281Z,97.50
2023-07-15T21:39:43.894Z,96.51
2023-07-15T21:42:10.399Z,96.83
2023-07-15T21:44:36.941Z,96.69
2023-07-15T21:47:03.557Z,97.04
2023-07-15T21:49:30.034Z,97.24
2023-07-15T21:51:56.537Z,97.21
2023-07-15T21:54:23.644Z,98.25
2023-07-15T21:56:50.220Z,98.50
2023-07-15T21:59:16.758Z,98.91
2023-07-15T22:01:43.445Z,100.00
2023-07-15T22:04:10.054Z,98.94
2023-07-15T22:06:36.559Z,98.73
2023-07-15T22:09:03.066Z,99.19
2023-07-15T22:11:29.540Z,99.87
2023-07-15T22:13:56.085Z,99.37
2023-07-15T22:16:22.578Z,99.35
2023-07-15T22:18:49.081Z,98.87
2023-07-15T22:21:15.548Z,99.49
2023-07-15T22:23:41.995Z,99.47
2023-07-15T22:26:09.464Z,100.00
2023-07-15T22:28:36.006Z,99.99
2023-07-15T22:31:02.529Z,99.35
2023-07-15T22:33:29.002Z,99.50
2023-07-15T22:35:55.515Z,97.53
2023-07-15T22:38:22.047Z,97.08
2023-07-15T22:40:48.481Z,98.57
2023-07-15T22:43:14.986Z,98.83
2023-07-15T22:45:52.606Z,98.20
2023-07-15T22:48:23.597Z,99.80
2023-07-15T22:50:50.371Z,98.89
2023-07-15T22:53:16.810Z,99.15
2023-07-15T22:55:43.889Z,99.04
2023-07-15T22:58:10.336Z,98.91
2023-07-15T23:00:36.936Z,99.66
2023-07-15T23:03:04.085Z,99.58
2023-07-15T23:05:30.801Z,98.96
2023-07-15T23:07:57.486Z,99.49
2023-07-15T23:10:24.112Z,100.00
2023-07-15T23:12:50.641Z,100.00
2023-07-15T23:15:17.238Z,100.00
2023-07-15T23:17:43.744Z,100.00
2023-07-15T23:20:10.532Z,100.00
2023-07-15T23:22:37.382Z,100.00
2023-07-15T23:25:04.390Z,100.00
2023-07-15T23:27:30.896Z,100.00
2023-07-15T23:29:57.464Z,100.00
2023-07-15T23:32:26.661Z,100.00
2023-07-15T23:34:54.335Z,100.00
2023-07-15T23:37:23.318Z,100.00
2023-07-15T23:39:53.419Z,100.00
2023-07-15T23:42:19.862Z,100.00
2023-07-15T23:44:46.534Z,100.00
2023-07-15T23:47:13.012Z,100.00
2023-07-15T23:49:39.539Z,100.00
2023-07-15T23:52:06.527Z,100.00
2023-07-15T23:54:34.000Z,100.00
2023-07-15T23:57:00.876Z,100.00
2023-07-15T23:59:27.732Z,100.00
